Hangzhou, China
Current Conditions -  °F | °C
As of 9:30 AM on Saturday 25 Oct 2014 (Local Time) from ZSHC Reporting Station
Haze Haze  
Wind Chill: 70°   Ceiling: Unl
Heat Index: 70°   Visibility: 1.8mi
Dew Point: 55°   Wind: 0mph
Humidity: 60%   Direction: NA
Pressure: 30.09"   Gusts: NA
Location:  30.25°N, 120.17°E
Report Text: ZSHC 250130Z 00000MPS 3000 HZ NSC 21/13 Q1019 NOSIG
Loading
Personal Weather Stations






























Interactive Weather Map
Tropical Storm Tracking
New forecast layout! Learn more

10-Day Weather Forecast

Advertisements
Track Severe Weather on mobile